Glenwild, Louisiana
Current Conditions -  °F | °C
As of 2:15 AM on Thursday 29 Jan 2015 (Local Time) from KPTN Reporting Station
Overcast Overcast  
Wind Chill: 48°   Ceiling: 500
Heat Index: 48°   Visibility: 0.75mi
Dew Point: 46°   Wind: 0mph
Humidity: 93%   Direction: NA
Pressure: 30.23"   Gusts: NA
Location:  29.6395°N, 91.1648°W
Report Text: KPTN 290815Z AUTO 00000KT 3/4SM VV005 09/08 A3023 RMK AO1
Loading
Personal Weather Stations






























Interactive Weather Map New forecast layout! Learn more

10-Day Weather Forecast

Advertisements
Track Severe Weather on mobile